La Cygne, Kansas
Current Conditions -  °F | °C
As of 8:53 AM on Thursday 30 Oct 2014 (Local Time) from KIXD Reporting Station
Few Clouds Few Clouds  
Wind Chill: 54°   Ceiling: Unl
Heat Index: 54°   Visibility: 10mi
Dew Point: 42°   Wind: 6mph
Humidity: 64%   Direction: 210°SSW
Pressure: 30.03"   Gusts: NA
Location:  38.35°N, 94.76°W
Report Text: KIXD 301353Z 21005KT 10SM FEW120 12/06 A3003 RMK AO2 SLP168 T01220056
Loading
Personal Weather Stations






























Interactive Weather Map
Tropical Storm Tracking
New forecast layout! Learn more

10-Day Weather Forecast

Advertisements
Track Severe Weather on mobile